首页
METAR-TAF:

METAR-TAF

机场 :

Porterville Municipal Airport

Porterville, 加利福尼亚州, 美国

纬度: 36-02N, 经度: 119-04W, 海拔: 135米

当前天气观测

该预报发布于6分钟前的20:56 UTC
风速3节,风向多变
温度 26°C
湿度 37%
气压 1016 hPa
能見度: 16.1公里
天空无云

METAR: KPTV 262056Z AUTO VRB03KT 10SM CLR 26/10 A2999 RMK AO2 SLP152 T02560100 58013

时间: 14:02 (21:02 UTC)


TAF: 丢失

超过4000个机场的气象观测和天气预报(METAR&TAF报告)。

可查询的气象台以黄色和红色小点在地图上表示。

将鼠标移到小点上方,可查看气象台名称。

然后点击查看天气观测和预报。

如需切换地图:点击带黑十字的绿色按钮放大地图;点击带横线的绿色按钮缩小地图;或者点击绿色箭头查看邻近地区的地图。


METAR-TAF: